UMBB

Brest Airport

Brest, Belarus
TAF UMBB 200805Z 2009/2018 22005MPS 6000 NSC TEMPO 2009/2012 2000 BR SCT005
Issued Valid From Valid To
Jan-20 @ 08:05 UTC
(3 hours ago)
Jan-20 @ 09:00 UTC
(2 hours ago)
Jan-20 @ 18:00 UTC
(in 7 hours)
Jan-20 @ 09:00 to Jan-20 @ 18:00
TAF UMBB 200805Z 2009/2018 22005MPS 6000 NSC
Wind Visibility Clouds
220° at 10 knots 6,003 meters
  • No significant clouds
Temporary Jan-20 @ 09:00 to Jan-20 @ 12:00
TEMPO 2009/2012 2000 BR SCT005
Visibility Clouds Conditions
1,996 meters
  • Scattered at 500' AGL
  • Mist
TAF UMBB 200805Z 2009/2018 22005MPS 6000 NSC TEMPO 2009/2012 2000 BR SCT005
Issued Jan-20 @ 08:05 UTC
(3 hours ago)
Valid From Jan-20 @ 09:00 UTC
(2 hours ago)
Valid To Jan-20 @ 18:00 UTC
(in 7 hours)
Jan-20 @ 09:00 - Jan-20 @ 18:00
Wind Visibility
220° at 10 knots 6,003 meters
Clouds
  • No significant clouds
Temporary Jan-20 @ 09:00 - Jan-20 @ 12:00
Clouds
  • Scattered at 500' AGL
Conditions
  • Mist